sensor_id;sensor_type;location;lat;lon;timestamp;pressure;altitude;pressure_sealevel;temperature;humidity
4570;BME280;2297;51.442;6.996;2022-09-17T00:01:50;99913.38;;;11.13;64.33
4570;BME280;2297;51.442;6.996;2022-09-17T00:04:17;99914.31;;;11.10;64.19
4570;BME280;2297;51.442;6.996;2022-09-17T00:06:44;99915.88;;;11.18;64.27
4570;BME280;2297;51.442;6.996;2022-09-17T00:09:10;99912.66;;;11.06;64.18
4570;BME280;2297;51.442;6.996;2022-09-17T00:11:40;99920.34;;;11.16;64.03
4570;BME280;2297;51.442;6.996;2022-09-17T00:14:09;99917.72;;;10.82;64.88
4570;BME280;2297;51.442;6.996;2022-09-17T00:16:39;99920.03;;;10.95;64.73
4570;BME280;2297;51.442;6.996;2022-09-17T00:19:12;99929.03;;;10.88;64.98
4570;BME280;2297;51.442;6.996;2022-09-17T00:21:39;99926.72;;;11.07;64.36
4570;BME280;2297;51.442;6.996;2022-09-17T00:24:07;99928.22;;;10.86;65.14
4570;BME280;2297;51.442;6.996;2022-09-17T00:26:34;99928.88;;;10.94;64.78
4570;BME280;2297;51.442;6.996;2022-09-17T00:29:01;99925.66;;;10.82;65.52
4570;BME280;2297;51.442;6.996;2022-09-17T00:31:29;99929.03;;;10.88;65.26
4570;BME280;2297;51.442;6.996;2022-09-17T00:33:57;99921.75;;;10.96;65.12
4570;BME280;2297;51.442;6.996;2022-09-17T00:36:25;99914.56;;;11.01;64.93
4570;BME280;2297;51.442;6.996;2022-09-17T00:38:54;99918.72;;;11.10;64.44
4570;BME280;2297;51.442;6.996;2022-09-17T00:41:22;99916.47;;;10.96;64.86
4570;BME280;2297;51.442;6.996;2022-09-17T00:43:51;99921.38;;;10.78;65.29
4570;BME280;2297;51.442;6.996;2022-09-17T00:46:28;99918.88;;;11.04;64.98
4570;BME280;2297;51.442;6.996;2022-09-17T00:48:58;99924.97;;;11.07;65.23
4570;BME280;2297;51.442;6.996;2022-09-17T00:51:30;99925.06;;;11.04;64.94
4570;BME280;2297;51.442;6.996;2022-09-17T00:53:59;99931.47;;;10.95;65.39
4570;BME280;2297;51.442;6.996;2022-09-17T00:56:29;99930.50;;;10.98;65.43
4570;BME280;2297;51.442;6.996;2022-09-17T00:58:57;99930.56;;;10.96;65.23
4570;BME280;2297;51.442;6.996;2022-09-17T01:01:26;99937.78;;;10.90;65.71
4570;BME280;2297;51.442;6.996;2022-09-17T01:03:52;99946.13;;;10.74;66.29
4570;BME280;2297;51.442;6.996;2022-09-17T01:06:27;99936.16;;;10.86;66.03
4570;BME280;2297;51.442;6.996;2022-09-17T01:09:13;99936.75;;;10.95;65.75
4570;BME280;2297;51.442;6.996;2022-09-17T01:12:07;99939.59;;;10.88;65.90
4570;BME280;2297;51.442;6.996;2022-09-17T01:14:51;99939.59;;;10.88;65.98
4570;BME280;2297;51.442;6.996;2022-09-17T01:17:28;99933.81;;;10.73;66.19
4570;BME280;2297;51.442;6.996;2022-09-17T01:20:39;99930.94;;;10.82;65.91
4570;BME280;2297;51.442;6.996;2022-09-17T01:23:50;99935.63;;;10.73;66.30
4570;BME280;2297;51.442;6.996;2022-09-17T01:26:38;99940.69;;;10.47;67.08
4570;BME280;2297;51.442;6.996;2022-09-17T01:29:16;99951.06;;;10.54;66.77
4570;BME280;2297;51.442;6.996;2022-09-17T01:31:51;99945.84;;;10.52;67.14
4570;BME280;2297;51.442;6.996;2022-09-17T01:34:22;99943.91;;;10.59;66.97
4570;BME280;2297;51.442;6.996;2022-09-17T01:37:01;99944.13;;;10.50;67.31
4570;BME280;2297;51.442;6.996;2022-09-17T01:39:34;99942.53;;;10.44;67.38
4570;BME280;2297;51.442;6.996;2022-09-17T01:42:12;99940.84;;;10.41;67.16
4570;BME280;2297;51.442;6.996;2022-09-17T01:44:46;99938.72;;;10.56;66.76
4570;BME280;2297;51.442;6.996;2022-09-17T01:47:19;99938.47;;;10.65;66.68
4570;BME280;2297;51.442;6.996;2022-09-17T01:49:47;99940.72;;;10.79;66.31
4570;BME280;2297;51.442;6.996;2022-09-17T01:52:18;99937.34;;;10.74;66.07
4570;BME280;2297;51.442;6.996;2022-09-17T01:54:46;99944.59;;;10.67;66.18
4570;BME280;2297;51.442;6.996;2022-09-17T01:57:18;99949.69;;;10.73;66.06
4570;BME280;2297;51.442;6.996;2022-09-17T01:59:50;99948.78;;;10.74;66.08
4570;BME280;2297;51.442;6.996;2022-09-17T02:02:25;99949.03;;;10.65;66.41
4570;BME280;2297;51.442;6.996;2022-09-17T02:04:56;99954.00;;;10.76;66.24
4570;BME280;2297;51.442;6.996;2022-09-17T02:07:25;99941.69;;;10.76;66.14
4570;BME280;2297;51.442;6.996;2022-09-17T02:09:58;99950.50;;;10.75;66.14
4570;BME280;2297;51.442;6.996;2022-09-17T02:12:30;99955.94;;;10.69;66.30
4570;BME280;2297;51.442;6.996;2022-09-17T02:15:01;99952.25;;;10.76;66.22
4570;BME280;2297;51.442;6.996;2022-09-17T02:17:34;99955.59;;;10.81;66.12
4570;BME280;2297;51.442;6.996;2022-09-17T02:20:02;99959.13;;;10.82;65.82
4570;BME280;2297;51.442;6.996;2022-09-17T02:22:36;99954.84;;;10.78;65.70
4570;BME280;2297;51.442;6.996;2022-09-17T02:25:05;99959.00;;;10.87;65.78
4570;BME280;2297;51.442;6.996;2022-09-17T02:27:41;99961.72;;;10.51;66.66
4570;BME280;2297;51.442;6.996;2022-09-17T02:30:11;99954.16;;;10.71;66.20
4570;BME280;2297;51.442;6.996;2022-09-17T02:32:40;99954.91;;;10.76;66.01
4570;BME280;2297;51.442;6.996;2022-09-17T02:35:08;99957.59;;;10.73;66.13
4570;BME280;2297;51.442;6.996;2022-09-17T02:37:35;99954.91;;;10.76;65.96
4570;BME280;2297;51.442;6.996;2022-09-17T02:40:01;99961.78;;;10.82;65.80
4570;BME280;2297;51.442;6.996;2022-09-17T02:42:34;99965.28;;;10.82;65.71
4570;BME280;2297;51.442;6.996;2022-09-17T02:45:11;99962.88;;;10.73;65.85
4570;BME280;2297;51.442;6.996;2022-09-17T02:47:55;99959.00;;;10.87;65.78
4570;BME280;2297;51.442;6.996;2022-09-17T02:50:36;99968.16;;;10.73;66.04
4570;BME280;2297;51.442;6.996;2022-09-17T02:53:18;99956.56;;;10.79;65.33
4570;BME280;2297;51.442;6.996;2022-09-17T02:55:56;99965.81;;;10.62;66.18
4570;BME280;2297;51.442;6.996;2022-09-17T02:58:30;99966.66;;;10.63;65.87
4570;BME280;2297;51.442;6.996;2022-09-17T03:01:03;99965.03;;;10.59;66.08
4570;BME280;2297;51.442;6.996;2022-09-17T03:03:37;99961.56;;;10.57;65.96
4570;BME280;2297;51.442;6.996;2022-09-17T03:06:05;99968.00;;;10.46;66.36
4570;BME280;2297;51.442;6.996;2022-09-17T03:08:34;99967.34;;;10.38;66.43
4570;BME280;2297;51.442;6.996;2022-09-17T03:11:02;99972.94;;;10.24;66.85
4570;BME280;2297;51.442;6.996;2022-09-17T03:13:29;99974.72;;;10.24;67.09
4570;BME280;2297;51.442;6.996;2022-09-17T03:15:56;99979.34;;;10.16;67.40
4570;BME280;2297;51.442;6.996;2022-09-17T03:18:23;99972.53;;;10.41;66.42
4570;BME280;2297;51.442;6.996;2022-09-17T03:20:51;99976.91;;;10.42;66.41
4570;BME280;2297;51.442;6.996;2022-09-17T03:23:17;99972.59;;;10.38;66.51
4570;BME280;2297;51.442;6.996;2022-09-17T03:25:44;99972.75;;;10.32;66.21
4570;BME280;2297;51.442;6.996;2022-09-17T03:28:11;99968.88;;;10.45;65.86
4570;BME280;2297;51.442;6.996;2022-09-17T03:30:38;99967.72;;;10.57;65.60
4570;BME280;2297;51.442;6.996;2022-09-17T03:33:04;99966.00;;;10.55;65.69
4570;BME280;2297;51.442;6.996;2022-09-17T03:35:31;99970.97;;;10.34;65.83
4570;BME280;2297;51.442;6.996;2022-09-17T03:37:59;99967.25;;;10.41;65.86
4570;BME280;2297;51.442;6.996;2022-09-17T03:40:25;99974.25;;;10.42;65.49
4570;BME280;2297;51.442;6.996;2022-09-17T03:42:52;99974.06;;;10.50;65.26
4570;BME280;2297;51.442;6.996;2022-09-17T03:45:19;99970.25;;;10.62;65.10
4570;BME280;2297;51.442;6.996;2022-09-17T03:47:45;99978.69;;;10.40;65.30
4570;BME280;2297;51.442;6.996;2022-09-17T03:50:12;99983.00;;;10.44;65.53
4570;BME280;2297;51.442;6.996;2022-09-17T03:52:38;99980.19;;;10.51;65.11
4570;BME280;2297;51.442;6.996;2022-09-17T03:55:07;99982.56;;;10.27;64.76
4570;BME280;2297;51.442;6.996;2022-09-17T03:57:34;99983.28;;;10.34;64.91
4570;BME280;2297;51.442;6.996;2022-09-17T04:00:00;99987.50;;;10.41;64.36
4570;BME280;2297;51.442;6.996;2022-09-17T04:02:27;99990.19;;;10.39;63.67
4570;BME280;2297;51.442;6.996;2022-09-17T04:04:54;99990.19;;;10.39;63.72
4570;BME280;2297;51.442;6.996;2022-09-17T04:07:20;99980.41;;;10.43;63.65
4570;BME280;2297;51.442;6.996;2022-09-17T04:09:47;99983.06;;;10.41;63.73
4570;BME280;2297;51.442;6.996;2022-09-17T04:12:15;99996.78;;;10.56;63.08
4570;BME280;2297;51.442;6.996;2022-09-17T04:14:41;99984.59;;;10.52;63.26
4570;BME280;2297;51.442;6.996;2022-09-17T04:17:08;99991.81;;;10.45;63.48
4570;BME280;2297;51.442;6.996;2022-09-17T04:19:36;99991.56;;;10.54;63.42
4570;BME280;2297;51.442;6.996;2022-09-17T04:22:02;99987.28;;;10.50;63.49
4570;BME280;2297;51.442;6.996;2022-09-17T04:24:29;99987.88;;;10.60;63.28
4570;BME280;2297;51.442;6.996;2022-09-17T04:26:56;99987.88;;;10.60;63.55
4570;BME280;2297;51.442;6.996;2022-09-17T04:29:24;99987.88;;;10.60;63.83
4570;BME280;2297;51.442;6.996;2022-09-17T04:31:50;99991.50;;;10.56;63.77
4570;BME280;2297;51.442;6.996;2022-09-17T04:34:17;99995.94;;;10.55;63.99
4570;BME280;2297;51.442;6.996;2022-09-17T04:36:44;99996.88;;;10.53;63.99
4570;BME280;2297;51.442;6.996;2022-09-17T04:39:11;99995.38;;;10.42;64.75
4570;BME280;2297;51.442;6.996;2022-09-17T04:41:37;99993.63;;;10.41;64.83
4570;BME280;2297;51.442;6.996;2022-09-17T04:44:04;99987.41;;;10.44;64.58
4570;BME280;2297;51.442;6.996;2022-09-17T04:46:32;99992.47;;;10.17;64.99
4570;BME280;2297;51.442;6.996;2022-09-17T04:48:59;99984.38;;;10.25;64.19
4570;BME280;2297;51.442;6.996;2022-09-17T04:51:25;99986.72;;;10.37;63.89
4570;BME280;2297;51.442;6.996;2022-09-17T04:53:52;99991.09;;;10.38;63.97
4570;BME280;2297;51.442;6.996;2022-09-17T04:56:19;99993.63;;;10.41;63.81
4570;BME280;2297;51.442;6.996;2022-09-17T04:58:46;100008.72;;;10.36;64.29
4570;BME280;2297;51.442;6.996;2022-09-17T05:01:12;100002.06;;;10.56;63.72
4570;BME280;2297;51.442;6.996;2022-09-17T05:03:40;100004.56;;;10.62;63.50
4570;BME280;2297;51.442;6.996;2022-09-17T05:06:07;100011.22;;;10.42;64.11
4570;BME280;2297;51.442;6.996;2022-09-17T05:08:33;100009.25;;;10.14;65.07
4570;BME280;2297;51.442;6.996;2022-09-17T05:11:00;100013.19;;;10.34;65.02
4570;BME280;2297;51.442;6.996;2022-09-17T05:13:27;100014.22;;;10.27;65.10
4570;BME280;2297;51.442;6.996;2022-09-17T05:15:54;100021.09;;;10.34;64.93
4570;BME280;2297;51.442;6.996;2022-09-17T05:18:21;100021.91;;;10.36;64.87
4570;BME280;2297;51.442;6.996;2022-09-17T05:20:49;100027.59;;;10.21;65.12
4570;BME280;2297;51.442;6.996;2022-09-17T05:23:16;100022.09;;;10.30;65.05
4570;BME280;2297;51.442;6.996;2022-09-17T05:25:43;100038.28;;;10.14;65.43
4570;BME280;2297;51.442;6.996;2022-09-17T05:28:09;100045.81;;;10.31;64.95
4570;BME280;2297;51.442;6.996;2022-09-17T05:30:36;100038.50;;;10.41;64.68
4570;BME280;2297;51.442;6.996;2022-09-17T05:33:04;100040.84;;;10.54;64.28
4570;BME280;2297;51.442;6.996;2022-09-17T05:35:32;100026.06;;;10.46;64.54
4570;BME280;2297;51.442;6.996;2022-09-17T05:38:03;100028.84;;;10.40;64.62
4570;BME280;2297;51.442;6.996;2022-09-17T05:40:31;100027.19;;;10.36;64.87
4570;BME280;2297;51.442;6.996;2022-09-17T05:42:59;100029.31;;;10.22;65.45
4570;BME280;2297;51.442;6.996;2022-09-17T05:45:25;100029.25;;;10.25;64.96
4570;BME280;2297;51.442;6.996;2022-09-17T05:47:55;100032.19;;;10.48;64.59
4570;BME280;2297;51.442;6.996;2022-09-17T05:50:22;100031.44;;;10.43;64.66
4570;BME280;2297;51.442;6.996;2022-09-17T05:52:49;100037.34;;;10.53;64.06
4570;BME280;2297;51.442;6.996;2022-09-17T05:55:18;100033.09;;;10.47;63.95
4570;BME280;2297;51.442;6.996;2022-09-17T05:57:46;100026.59;;;10.61;63.81
4570;BME280;2297;51.442;6.996;2022-09-17T06:00:13;100039.88;;;10.58;63.78
4570;BME280;2297;51.442;6.996;2022-09-17T06:02:40;100045.97;;;10.60;63.38
4570;BME280;2297;51.442;6.996;2022-09-17T06:05:08;100050.69;;;10.48;63.88
4570;BME280;2297;51.442;6.996;2022-09-17T06:07:35;100056.91;;;10.44;64.13
4570;BME280;2297;51.442;6.996;2022-09-17T06:10:03;100057.63;;;10.53;63.93
4570;BME280;2297;51.442;6.996;2022-09-17T06:12:31;100064.19;;;10.35;64.20
4570;BME280;2297;51.442;6.996;2022-09-17T06:14:59;100065.53;;;10.51;63.74
4570;BME280;2297;51.442;6.996;2022-09-17T06:17:26;100067.63;;;10.38;64.18
4570;BME280;2297;51.442;6.996;2022-09-17T06:19:52;100072.84;;;10.41;64.59
4570;BME280;2297;51.442;6.996;2022-09-17T06:22:19;100070.06;;;10.47;64.34
4570;BME280;2297;51.442;6.996;2022-09-17T06:24:46;100080.44;;;10.54;64.00
4570;BME280;2297;51.442;6.996;2022-09-17T06:27:12;100088.63;;;10.43;64.46
4570;BME280;2297;51.442;6.996;2022-09-17T06:29:40;100088.81;;;10.35;64.60
4570;BME280;2297;51.442;6.996;2022-09-17T06:32:07;100100.91;;;10.45;64.44
4570;BME280;2297;51.442;6.996;2022-09-17T06:34:35;100089.91;;;10.26;65.06
4570;BME280;2297;51.442;6.996;2022-09-17T06:37:01;100092.16;;;10.43;64.56
4570;BME280;2297;51.442;6.996;2022-09-17T06:39:28;100098.22;;;10.47;64.26
4570;BME280;2297;51.442;6.996;2022-09-17T06:41:54;100106.34;;;10.39;64.18
4570;BME280;2297;51.442;6.996;2022-09-17T06:44:21;100098.34;;;10.42;64.46
4570;BME280;2297;51.442;6.996;2022-09-17T06:46:49;100098.69;;;10.64;63.80
4570;BME280;2297;51.442;6.996;2022-09-17T06:49:16;100093.59;;;10.57;64.13
4570;BME280;2297;51.442;6.996;2022-09-17T06:51:43;100088.19;;;10.61;64.12
4570;BME280;2297;51.442;6.996;2022-09-17T06:54:10;100091.50;;;10.71;63.80
4570;BME280;2297;51.442;6.996;2022-09-17T06:56:36;100082.59;;;10.75;63.84
4570;BME280;2297;51.442;6.996;2022-09-17T06:59:03;100092.00;;;10.86;63.32
4570;BME280;2297;51.442;6.996;2022-09-17T07:01:30;100091.31;;;10.77;63.02
4570;BME280;2297;51.442;6.996;2022-09-17T07:03:58;100095.13;;;10.67;63.88
4570;BME280;2297;51.442;6.996;2022-09-17T07:06:24;100092.31;;;10.73;63.34
4570;BME280;2297;51.442;6.996;2022-09-17T07:08:51;100089.06;;;10.62;63.51
4570;BME280;2297;51.442;6.996;2022-09-17T07:11:18;100096.06;;;10.64;63.59
4570;BME280;2297;51.442;6.996;2022-09-17T07:13:44;100088.16;;;10.63;63.06
4570;BME280;2297;51.442;6.996;2022-09-17T07:16:11;100090.72;;;10.66;63.40
4570;BME280;2297;51.442;6.996;2022-09-17T07:18:37;100096.19;;;10.58;63.56
4570;BME280;2297;51.442;6.996;2022-09-17T07:21:06;100084.22;;;10.79;62.83
4570;BME280;2297;51.442;6.996;2022-09-17T07:23:35;100093.41;;;10.64;63.05
4570;BME280;2297;51.442;6.996;2022-09-17T07:26:04;100090.88;;;10.94;62.37
4570;BME280;2297;51.442;6.996;2022-09-17T07:28:31;100096.72;;;11.07;61.84
4570;BME280;2297;51.442;6.996;2022-09-17T07:30:57;100093.88;;;11.17;61.57
4570;BME280;2297;51.442;6.996;2022-09-17T07:33:25;100097.03;;;11.31;60.81
4570;BME280;2297;51.442;6.996;2022-09-17T07:35:53;100097.50;;;11.12;61.51
4570;BME280;2297;51.442;6.996;2022-09-17T07:38:22;100096.91;;;11.34;60.89
4570;BME280;2297;51.442;6.996;2022-09-17T07:40:54;100092.13;;;11.16;60.48
4570;BME280;2297;51.442;6.996;2022-09-17T07:43:22;100090.34;;;11.18;60.43
4570;BME280;2297;51.442;6.996;2022-09-17T07:45:49;100080.66;;;11.17;60.11
4570;BME280;2297;51.442;6.996;2022-09-17T07:48:15;100083.47;;;11.10;59.82
4570;BME280;2297;51.442;6.996;2022-09-17T07:50:42;100087.34;;;10.95;60.06
4570;BME280;2297;51.442;6.996;2022-09-17T07:53:08;100090.59;;;11.05;59.47
4570;BME280;2297;51.442;6.996;2022-09-17T07:55:37;100094.66;;;10.86;59.03
4570;BME280;2297;51.442;6.996;2022-09-17T07:58:04;100088.19;;;10.96;58.80
4570;BME280;2297;51.442;6.996;2022-09-17T08:00:31;100092.50;;;11.00;58.29
4570;BME280;2297;51.442;6.996;2022-09-17T08:02:57;100094.63;;;11.22;57.29
4570;BME280;2297;51.442;6.996;2022-09-17T08:05:24;100104.94;;;10.96;57.07
4570;BME280;2297;51.442;6.996;2022-09-17T08:07:52;100103.00;;;11.03;57.45
4570;BME280;2297;51.442;6.996;2022-09-17T08:10:20;100102.81;;;11.12;56.98
4570;BME280;2297;51.442;6.996;2022-09-17T08:12:49;100107.84;;;11.22;55.63
4570;BME280;2297;51.442;6.996;2022-09-17T08:15:17;100098.44;;;11.10;55.62
4570;BME280;2297;51.442;6.996;2022-09-17T08:17:44;100104.19;;;11.26;55.98
4570;BME280;2297;51.442;6.996;2022-09-17T08:20:15;100102.06;;;11.40;55.67
4570;BME280;2297;51.442;6.996;2022-09-17T08:22:42;100104.81;;;11.67;55.23
4570;BME280;2297;51.442;6.996;2022-09-17T08:25:09;100095.03;;;11.71;54.69
4570;BME280;2297;51.442;6.996;2022-09-17T08:27:36;100094.59;;;11.55;54.84
4570;BME280;2297;51.442;6.996;2022-09-17T08:30:06;100098.63;;;11.68;54.61
4570;BME280;2297;51.442;6.996;2022-09-17T08:32:33;100103.34;;;11.57;54.82
4570;BME280;2297;51.442;6.996;2022-09-17T08:35:00;100100.75;;;11.55;54.56
4570;BME280;2297;51.442;6.996;2022-09-17T08:37:27;100099.09;;;11.83;52.43
4570;BME280;2297;51.442;6.996;2022-09-17T08:39:54;100098.16;;;12.13;52.65
4570;BME280;2297;51.442;6.996;2022-09-17T08:42:27;100097.06;;;12.22;52.74
4570;BME280;2297;51.442;6.996;2022-09-17T08:44:57;100097.34;;;12.41;52.66
4570;BME280;2297;51.442;6.996;2022-09-17T08:47:28;100098.00;;;12.48;52.22
4570;BME280;2297;51.442;6.996;2022-09-17T08:49:58;100095.59;;;12.40;51.12
4570;BME280;2297;51.442;6.996;2022-09-17T08:52:46;100098.09;;;12.45;51.06
4570;BME280;2297;51.442;6.996;2022-09-17T08:55:29;100097.59;;;12.60;50.15
4570;BME280;2297;51.442;6.996;2022-09-17T08:58:09;100101.84;;;12.66;50.41
4570;BME280;2297;51.442;6.996;2022-09-17T09:00:45;100101.97;;;12.35;49.97
4570;BME280;2297;51.442;6.996;2022-09-17T09:03:28;100094.28;;;12.54;49.13
4570;BME280;2297;51.442;6.996;2022-09-17T09:05:59;100094.88;;;12.62;48.80
4570;BME280;2297;51.442;6.996;2022-09-17T09:08:30;100088.66;;;12.90;48.11
4570;BME280;2297;51.442;6.996;2022-09-17T09:11:02;100092.13;;;12.92;47.98
4570;BME280;2297;51.442;6.996;2022-09-17T09:13:32;100090.53;;;13.13;46.64
4570;BME280;2297;51.442;6.996;2022-09-17T09:16:02;100094.44;;;13.28;46.79
4570;BME280;2297;51.442;6.996;2022-09-17T09:18:35;100087.84;;;13.40;46.46
4570;BME280;2297;51.442;6.996;2022-09-17T09:21:15;100090.22;;;13.47;46.07
4570;BME280;2297;51.442;6.996;2022-09-17T09:23:51;100088.41;;;13.50;45.94
4570;BME280;2297;51.442;6.996;2022-09-17T09:26:20;100086.31;;;13.58;45.31
4570;BME280;2297;51.442;6.996;2022-09-17T09:29:03;100091.63;;;13.58;44.25
4570;BME280;2297;51.442;6.996;2022-09-17T09:31:45;100093.03;;;13.68;43.14
4570;BME280;2297;51.442;6.996;2022-09-17T09:34:15;100097.59;;;13.87;43.00
4570;BME280;2297;51.442;6.996;2022-09-17T09:36:42;100089.97;;;14.01;42.79
4570;BME280;2297;51.442;6.996;2022-09-17T09:39:14;100098.66;;;13.59;42.94
4570;BME280;2297;51.442;6.996;2022-09-17T09:41:45;100088.91;;;13.83;43.26
4570;BME280;2297;51.442;6.996;2022-09-17T09:44:14;100084.81;;;13.98;42.83
4570;BME280;2297;51.442;6.996;2022-09-17T09:46:50;100099.91;;;14.20;42.53
4570;BME280;2297;51.442;6.996;2022-09-17T09:49:31;100090.47;;;13.89;42.67
4570;BME280;2297;51.442;6.996;2022-09-17T09:52:09;100080.59;;;13.92;42.43
4570;BME280;2297;51.442;6.996;2022-09-17T09:54:48;100094.59;;;14.20;42.34
4570;BME280;2297;51.442;6.996;2022-09-17T09:57:21;100093.69;;;13.97;43.16
4570;BME280;2297;51.442;6.996;2022-09-17T09:59:49;100099.06;;;13.95;44.97
4570;BME280;2297;51.442;6.996;2022-09-17T10:02:16;100112.09;;;14.02;47.19
4570;BME280;2297;51.442;6.996;2022-09-17T10:04:44;100111.00;;;13.35;48.56
4570;BME280;2297;51.442;6.996;2022-09-17T10:07:10;100106.72;;;13.56;49.25
4570;BME280;2297;51.442;6.996;2022-09-17T10:09:38;100114.81;;;13.27;50.26
4570;BME280;2297;51.442;6.996;2022-09-17T10:12:19;100105.50;;;13.41;49.80
4570;BME280;2297;51.442;6.996;2022-09-17T10:14:46;100097.59;;;13.39;49.76
4570;BME280;2297;51.442;6.996;2022-09-17T10:17:15;100094.56;;;13.50;50.02
4570;BME280;2297;51.442;6.996;2022-09-17T10:19:46;100082.16;;;13.74;49.93
4570;BME280;2297;51.442;6.996;2022-09-17T10:22:23;100075.34;;;13.91;49.99
4570;BME280;2297;51.442;6.996;2022-09-17T10:24:52;100078.03;;;13.89;49.84
4570;BME280;2297;51.442;6.996;2022-09-17T10:27:21;100072.00;;;14.09;48.55
4570;BME280;2297;51.442;6.996;2022-09-17T10:29:52;100079.53;;;14.42;47.51
4570;BME280;2297;51.442;6.996;2022-09-17T10:32:23;100061.38;;;14.54;46.27
4570;BME280;2297;51.442;6.996;2022-09-17T10:35:02;100071.44;;;14.88;46.81
4570;BME280;2297;51.442;6.996;2022-09-17T10:37:40;100066.38;;;14.61;45.81
4570;BME280;2297;51.442;6.996;2022-09-17T10:40:30;100071.63;;;14.63;46.00
4570;BME280;2297;51.442;6.996;2022-09-17T10:43:22;100081.03;;;14.50;47.08
4570;BME280;2297;51.442;6.996;2022-09-17T10:45:57;100072.50;;;14.84;47.44
4570;BME280;2297;51.442;6.996;2022-09-17T10:48:29;100058.97;;;15.11;46.37
4570;BME280;2297;51.442;6.996;2022-09-17T10:50:58;100064.13;;;15.16;46.10
4570;BME280;2297;51.442;6.996;2022-09-17T10:53:27;100064.59;;;15.03;46.90
4570;BME280;2297;51.442;6.996;2022-09-17T10:56:01;100056.25;;;14.92;46.38
4570;BME280;2297;51.442;6.996;2022-09-17T10:58:42;100069.41;;;14.74;47.16
4570;BME280;2297;51.442;6.996;2022-09-17T11:01:24;100067.59;;;14.53;47.14
4570;BME280;2297;51.442;6.996;2022-09-17T11:04:17;100082.84;;;14.27;47.79
4570;BME280;2297;51.442;6.996;2022-09-17T11:10:11;100118.63;;;13.69;52.01
4570;BME280;2297;51.442;6.996;2022-09-17T11:12:57;100085.59;;;13.29;53.60
4570;BME280;2297;51.442;6.996;2022-09-17T11:15:38;100097.63;;;12.86;54.91
4570;BME280;2297;51.442;6.996;2022-09-17T11:18:35;100104.09;;;12.50;53.40
4570;BME280;2297;51.442;6.996;2022-09-17T11:21:24;100108.84;;;12.40;55.01
4570;BME280;2297;51.442;6.996;2022-09-17T11:27:03;100107.75;;;12.47;57.20
4570;BME280;2297;51.442;6.996;2022-09-17T11:29:42;100104.56;;;12.63;56.10
4570;BME280;2297;51.442;6.996;2022-09-17T11:32:27;100110.69;;;12.65;55.60
4570;BME280;2297;51.442;6.996;2022-09-17T11:34:59;100105.41;;;12.65;55.13
4570;BME280;2297;51.442;6.996;2022-09-17T11:37:32;100103.13;;;12.53;55.63
4570;BME280;2297;51.442;6.996;2022-09-17T11:40:11;100104.94;;;12.24;55.28
4570;BME280;2297;51.442;6.996;2022-09-17T11:42:44;100116.78;;;12.40;55.48
4570;BME280;2297;51.442;6.996;2022-09-17T11:45:14;100097.34;;;11.81;57.52
4570;BME280;2297;51.442;6.996;2022-09-17T11:47:46;100101.59;;;12.17;56.78
4570;BME280;2297;51.442;6.996;2022-09-17T11:50:19;100090.72;;;12.55;55.91
4570;BME280;2297;51.442;6.996;2022-09-17T11:52:58;100086.06;;;12.35;55.11
4570;BME280;2297;51.442;6.996;2022-09-17T11:55:32;100086.75;;;12.41;55.03
4570;BME280;2297;51.442;6.996;2022-09-17T11:58:10;100088.56;;;12.39;55.17
4570;BME280;2297;51.442;6.996;2022-09-17T12:00:42;100088.78;;;12.33;53.75
4570;BME280;2297;51.442;6.996;2022-09-17T12:03:16;100089.50;;;12.65;54.74
4570;BME280;2297;51.442;6.996;2022-09-17T12:05:47;100083.91;;;12.74;54.15
4570;BME280;2297;51.442;6.996;2022-09-17T12:08:19;100085.00;;;12.94;54.76
4570;BME280;2297;51.442;6.996;2022-09-17T12:10:52;100085.25;;;13.38;52.77
4570;BME280;2297;51.442;6.996;2022-09-17T12:13:31;100074.97;;;13.29;50.38
4570;BME280;2297;51.442;6.996;2022-09-17T12:16:07;100072.56;;;13.46;51.22
4570;BME280;2297;51.442;6.996;2022-09-17T12:18:55;100092.72;;;13.27;51.96
4570;BME280;2297;51.442;6.996;2022-09-17T12:21:28;100088.06;;;13.34;52.64
4570;BME280;2297;51.442;6.996;2022-09-17T12:24:00;100086.84;;;12.92;53.41
4570;BME280;2297;51.442;6.996;2022-09-17T12:26:39;100087.56;;;12.70;53.59
4570;BME280;2297;51.442;6.996;2022-09-17T12:29:20;100091.84;;;12.18;56.40
4570;BME280;2297;51.442;6.996;2022-09-17T12:31:53;100094.34;;;12.24;56.88
4570;BME280;2297;51.442;6.996;2022-09-17T12:34:30;100087.47;;;12.46;58.07
4570;BME280;2297;51.442;6.996;2022-09-17T12:37:05;100082.34;;;12.67;58.25
4570;BME280;2297;51.442;6.996;2022-09-17T12:42:59;100075.84;;;12.51;58.32
4570;BME280;2297;51.442;6.996;2022-09-17T12:45:52;100065.19;;;12.52;58.78
4570;BME280;2297;51.442;6.996;2022-09-17T12:51:40;100066.16;;;13.03;56.59
4570;BME280;2297;51.442;6.996;2022-09-17T12:54:21;100050.50;;;13.21;55.84
4570;BME280;2297;51.442;6.996;2022-09-17T12:56:56;100056.34;;;13.30;53.82
4570;BME280;2297;51.442;6.996;2022-09-17T12:59:28;100052.19;;;13.72;52.65
4570;BME280;2297;51.442;6.996;2022-09-17T13:02:00;100055.56;;;13.52;51.13
4570;BME280;2297;51.442;6.996;2022-09-17T13:04:44;100051.69;;;13.61;51.67
4570;BME280;2297;51.442;6.996;2022-09-17T13:07:32;100045.00;;;13.74;50.95
4570;BME280;2297;51.442;6.996;2022-09-17T13:10:25;100048.69;;;13.70;50.23
4570;BME280;2297;51.442;6.996;2022-09-17T13:13:04;100047.63;;;13.98;49.95
4570;BME280;2297;51.442;6.996;2022-09-17T13:15:52;100037.50;;;14.08;48.35
4570;BME280;2297;51.442;6.996;2022-09-17T13:18:27;100035.56;;;14.35;48.35
4570;BME280;2297;51.442;6.996;2022-09-17T13:20:59;100042.09;;;14.26;48.62
4570;BME280;2297;51.442;6.996;2022-09-17T13:23:31;100031.84;;;14.39;48.07
4570;BME280;2297;51.442;6.996;2022-09-17T13:25:58;100027.72;;;14.75;47.49
4570;BME280;2297;51.442;6.996;2022-09-17T13:28:36;100024.13;;;14.76;45.74
4570;BME280;2297;51.442;6.996;2022-09-17T13:31:04;100031.63;;;15.07;45.58
4570;BME280;2297;51.442;6.996;2022-09-17T13:34:02;100020.16;;;15.66;44.83
4570;BME280;2297;51.442;6.996;2022-09-17T13:36:38;100012.34;;;15.43;43.87
4570;BME280;2297;51.442;6.996;2022-09-17T13:39:07;100016.75;;;15.24;44.09
4570;BME280;2297;51.442;6.996;2022-09-17T13:41:36;100026.47;;;14.84;44.76
4570;BME280;2297;51.442;6.996;2022-09-17T13:44:04;100044.19;;;14.62;46.00
4570;BME280;2297;51.442;6.996;2022-09-17T13:46:34;100077.53;;;14.27;49.66
4570;BME280;2297;51.442;6.996;2022-09-17T13:49:03;100106.38;;;13.89;55.55
4570;BME280;2297;51.442;6.996;2022-09-17T13:51:50;100100.22;;;11.42;80.63